createdAt,value
2022-12-17T08:21:15.746Z,33.30
2022-12-17T08:24:01.235Z,31.53
2022-12-17T08:26:48.367Z,33.93
2022-12-17T08:29:33.913Z,35.20
2022-12-17T08:32:19.520Z,33.97
2022-12-17T08:35:05.098Z,33.00
2022-12-17T08:37:51.892Z,34.50
2022-12-17T08:40:37.417Z,33.10
2022-12-17T08:43:23.039Z,32.83
2022-12-17T08:46:10.086Z,33.17
2022-12-17T08:48:56.523Z,31.83
2022-12-17T08:51:42.550Z,32.53
2022-12-17T08:54:29.337Z,32.07
2022-12-17T08:57:27.133Z,33.47
2022-12-17T09:00:16.791Z,32.13
2022-12-17T09:03:02.346Z,32.63
2022-12-17T09:05:47.695Z,33.73
2022-12-17T09:08:33.294Z,32.03
2022-12-17T09:11:20.374Z,31.63
2022-12-17T09:14:06.030Z,33.90
2022-12-17T09:16:51.761Z,32.43
2022-12-17T09:19:37.071Z,33.63
2022-12-17T09:22:22.608Z,33.30
2022-12-17T09:25:08.143Z,33.83
2022-12-17T09:27:54.778Z,33.40
2022-12-17T09:30:40.260Z,31.87
2022-12-17T09:33:25.930Z,32.07
2022-12-17T09:36:11.517Z,31.70
2022-12-17T09:38:56.979Z,33.50
2022-12-17T09:41:46.397Z,33.53
2022-12-17T09:44:48.417Z,33.73
2022-12-17T09:47:44.302Z,33.83
2022-12-17T09:50:33.284Z,34.50
2022-12-17T09:53:20.667Z,34.50
2022-12-17T09:56:20.306Z,34.13
2022-12-17T09:59:05.908Z,33.93
2022-12-17T10:01:54.200Z,34.20
2022-12-17T10:04:48.674Z,32.70
2022-12-17T10:07:38.118Z,34.03
2022-12-17T10:10:35.814Z,32.70
2022-12-17T10:13:26.577Z,32.47
2022-12-17T10:16:12.130Z,31.37
2022-12-17T10:18:58.989Z,31.20
2022-12-17T10:21:45.333Z,30.33
2022-12-17T10:24:31.118Z,32.00
2022-12-17T10:27:16.582Z,32.70
2022-12-17T10:30:03.616Z,33.53
2022-12-17T10:32:49.151Z,36.90
2022-12-17T10:35:39.767Z,40.10
2022-12-17T10:38:32.404Z,36.13
2022-12-17T10:41:20.996Z,32.63
2022-12-17T10:44:06.604Z,32.60
2022-12-17T10:46:53.066Z,25.93
2022-12-17T10:49:41.373Z,32.03
2022-12-17T10:52:42.660Z,32.93
2022-12-17T10:55:40.623Z,32.00
2022-12-17T10:58:32.613Z,32.03
2022-12-17T11:01:19.199Z,30.23
2022-12-17T11:04:10.644Z,29.83
2022-12-17T11:06:59.513Z,30.30
2022-12-17T11:10:03.668Z,30.27
2022-12-17T11:12:56.772Z,28.17
2022-12-17T11:15:48.413Z,27.77
2022-12-17T11:18:38.727Z,28.80
2022-12-17T11:21:29.319Z,28.97
2022-12-17T11:24:22.191Z,31.30
2022-12-17T11:27:12.272Z,29.73
2022-12-17T11:29:57.872Z,28.33
2022-12-17T11:33:12.993Z,29.70
2022-12-17T11:36:08.596Z,30.60
2022-12-17T11:38:57.484Z,30.50
2022-12-17T11:41:54.526Z,30.60
2022-12-17T11:44:55.423Z,31.90
2022-12-17T11:47:54.881Z,31.50
2022-12-17T11:50:47.066Z,29.37
2022-12-17T11:53:49.562Z,29.53
2022-12-17T11:56:42.013Z,29.67
2022-12-17T11:59:39.667Z,28.80
2022-12-17T12:02:39.269Z,28.37
2022-12-17T12:05:38.821Z,29.77
2022-12-17T12:08:35.625Z,29.83
2022-12-17T12:11:31.911Z,31.03
2022-12-17T12:14:25.505Z,29.30
2022-12-17T12:17:17.552Z,30.70
2022-12-17T12:20:10.852Z,30.30
2022-12-17T12:23:02.064Z,31.50
2022-12-17T12:25:53.021Z,32.60
2022-12-17T12:28:46.706Z,31.67
2022-12-17T12:31:55.075Z,31.67
2022-12-17T12:34:44.385Z,30.40
2022-12-17T12:37:35.244Z,31.43
2022-12-17T12:40:30.199Z,30.13
2022-12-17T12:43:33.184Z,30.37
2022-12-17T12:46:23.605Z,32.53
2022-12-17T12:49:17.637Z,31.83
2022-12-17T12:52:03.261Z,30.60
2022-12-17T12:55:08.577Z,32.00
2022-12-17T12:57:56.057Z,31.40
2022-12-17T13:00:44.314Z,29.93
2022-12-17T13:03:47.941Z,30.90
2022-12-17T13:06:39.923Z,31.20
2022-12-17T13:09:30.735Z,31.07
2022-12-17T13:12:29.840Z,30.57
2022-12-17T13:15:14.854Z,30.17
2022-12-17T13:17:46.970Z,29.57
2022-12-17T13:20:30.400Z,31.23
2022-12-17T13:23:27.664Z,30.50
2022-12-17T13:26:23.685Z,30.17
2022-12-17T13:29:12.673Z,31.30
2022-12-17T13:31:56.089Z,29.93
2022-12-17T13:34:32.445Z,30.10
2022-12-17T13:37:08.412Z,30.00
2022-12-17T13:39:44.535Z,29.23
2022-12-17T13:42:20.190Z,30.90
2022-12-17T13:44:49.932Z,33.13
2022-12-17T13:47:23.838Z,36.67
2022-12-17T13:50:24.435Z,35.03
2022-12-17T13:52:41.151Z,31.33
2022-12-17T13:55:11.265Z,32.03
2022-12-17T13:57:39.644Z,32.93
2022-12-17T14:00:21.409Z,33.30
2022-12-17T14:02:49.688Z,37.80
2022-12-17T14:05:27.126Z,36.73
2022-12-17T14:07:55.476Z,35.20
2022-12-17T14:10:23.563Z,36.03
2022-12-17T14:12:51.431Z,37.30
2022-12-17T14:15:26.084Z,35.03
2022-12-17T14:17:56.450Z,37.53
2022-12-17T14:20:26.967Z,37.60
2022-12-17T14:22:57.856Z,36.73
2022-12-17T14:25:28.310Z,37.13
2022-12-17T14:27:58.748Z,35.17
2022-12-17T14:30:46.207Z,33.70
2022-12-17T14:33:29.469Z,34.90
2022-12-17T14:36:02.066Z,34.80
2022-12-17T14:38:48.476Z,33.90
2022-12-17T14:41:34.478Z,36.43
2022-12-17T14:44:04.147Z,36.57
2022-12-17T14:46:35.676Z,38.43
2022-12-17T14:49:05.930Z,36.13
2022-12-17T14:51:37.468Z,36.53
2022-12-17T14:54:29.088Z,36.57
2022-12-17T14:56:58.917Z,37.00
2022-12-17T14:59:31.908Z,37.47
2022-12-17T15:02:03.836Z,38.10
